• Join FlightAware (Why Join?)
  • Login
  • US Flag 
05:28PM EDT


 

Airport Tracker/Info


-or-


 

Live Flight TrackerFlight Track Log ✈ WEW1540 ✈ 03-May-2013 ✈ CYKY - CYYN

Flight Track Log - Related Links

Times and Time Zones

All times are in EDT time to prevent confusion due to time zone crossing. See the WEW1540 flight status page for this flight to view local times or setup timezone preferences in your user account.

Time Position Orientation Groundspeed Altitude Reporting Facility
EDT Latitude Longitude Course Direction KTS MPH feet Rate Location/Type
07:07PM 51.3667 -109.0333 142° Southeast 20 23 8,600  Level Winnipeg Center
07:08PM 51.3333 -109.0000 148° Southeast 140 161 9,100 240 Climbing Winnipeg Center
07:09PM 51.2728 -108.8750 142° Southeast  Level Estimated
07:09PM 51.2833 -108.9333 140° Southeast 180 207 9,100  Level Winnipeg Center
07:10PM 51.2378 -108.8314 142° Southeast  Level FlightAware Approximate
07:11PM 51.2029 -108.7878 142° Southeast  Level FlightAware Approximate
07:11PM 51.2167 -108.8333 137° Southeast 180 207 9,100  Level Winnipeg Center
07:12PM 51.1679 -108.7444 142° Southeast  Level FlightAware Approximate
07:12PM 51.1500 -108.8000 163° South 200 230 9,100  Level Winnipeg Center
07:13PM 51.1329 -108.7009 142° Southeast  Level FlightAware Approximate
07:14PM 51.0833 -108.7000 137° Southeast 200 230 9,100  Level Winnipeg Center
07:15PM 51.0333 -108.6333 140° Southeast 200 230 9,100  Level Winnipeg Center
07:16PM 50.9833 -108.5667 140° Southeast 220 253 9,100  Level Winnipeg Center
07:17PM 50.9500 -108.5333 148° Southeast 200 230 9,100  Level Winnipeg Center
07:18PM 50.9000 -108.4667 140° Southeast 200 230 9,100  Level Winnipeg Center
07:19PM 50.8500 -108.4167 148° Southeast 200 230 9,100  Level Winnipeg Center
07:20PM 50.8000 -108.3833 157° South 200 230 9,100  Level Winnipeg Center
07:22PM 50.7396 -108.2822 133° Southeast  Level FlightAware Approximate
07:29PM 50.5113 -107.9449 143° Southeast  Level FlightAware Approximate
07:30PM 50.4758 -107.9030 143° Southeast  Level FlightAware Approximate
07:31PM 50.4404 -107.8612 143° Southeast  Level FlightAware Approximate
07:32PM 50.4047 -107.8198 144° Southeast  Level FlightAware Approximate
07:33PM 50.3687 -107.7793 144° Southeast  Level FlightAware Approximate
07:34PM 50.3327 -107.7387 144° Southeast  Level FlightAware Approximate
07:35PM 50.2967 -107.6983 144° Southeast  Level FlightAware Approximate
07:36PM 50.2919 -107.6906 144° Southeast  Level Estimated
07:37PM 50.2919 -107.6906 144° Southeast  Level Estimated
07:38PM 50.2919 -107.6906 144° Southeast  Level Estimated